Terminal Aerodrome Forecast
Issued by NWS Twin Cities, MN

Home | Current Version | Previous Version | Text Only | Print | Product List | Glossary Off
Versions: 1 2 3 4 5 6 7 8 9 10 11 12 13 14 15 16 17 18 19 20 21 22 23 24 25 26 27 28 29 30

930
FTUS43 KMPX 251551 AAC
TAFMSP
TAF AMD
KMSP 251551Z 2516/2618 15010KT 6SM -SHRA SCT020 BKN070
     FM251900 12012KT P6SM VCSH BKN040 OVC100
     FM252200 13009KT P6SM SCT050 BKN250
     FM261000 17004KT 5SM BR SCT250
     FM261300 21008KT P6SM SCT250=

USA.gov is the U.S. government's official web portal to all federal, state and local government web resources and services.